Weather at Stanhope Municipal Airport

Public forecast

Using degrees Celsius for public forecast. Weather courtesy of forecast.io.

Closest aviation weather report (METAR) to Stanhope Municipal Airport

Closest report is Muskoka Airport, 29.3 nm (54.3 km) WSW. Retrieved 2021/07/27 09:00 UTC (17 minutes ago):

CYQA 270900Z AUTO 00000KT 6SM BR SCT100 14/14 A2994 RMK SLP140 DENSITY ALT 1000FT

Closest aviation forecast (TAF) to Stanhope Municipal Airport

Forecast is more than 12 hours old.

Closest forecast is Muskoka Airport, 29.3 nm (54.3 km) WSW. Retrieved 2021/07/26 20:00 UTC (13 hours ago):

TAF CYQA 261941Z 2620/2702 28010G20KT P6SM FEW090 FM270000 28006KT P6SM SKC RMK FCST BASED ON AUTO OBS NXT FCST WILL BE ISSUED AT 271145Z